sensor_id;sensor_type;location;lat;lon;timestamp;pressure;altitude;pressure_sealevel;temperature;humidity
24302;BME280;12421;49.732;20.078;2023-05-21T00:03:54;97290.34;;;13.08;87.99
24302;BME280;12421;49.732;20.078;2023-05-21T00:13:57;97294.60;;;13.06;87.53
24302;BME280;12421;49.732;20.078;2023-05-21T00:24:00;97287.44;;;13.14;87.84
24302;BME280;12421;49.732;20.078;2023-05-21T00:34:04;97282.05;;;13.07;87.17
24302;BME280;12421;49.732;20.078;2023-05-21T00:44:07;97280.62;;;12.84;87.86
24302;BME280;12421;49.732;20.078;2023-05-21T00:54:11;97279.91;;;12.83;87.71
24302;BME280;12421;49.732;20.078;2023-05-21T01:04:15;97282.17;;;12.87;87.05
24302;BME280;12421;49.732;20.078;2023-05-21T01:14:19;97283.68;;;12.78;87.48
24302;BME280;12421;49.732;20.078;2023-05-21T01:24:23;97278.41;;;12.65;87.54
24302;BME280;12421;49.732;20.078;2023-05-21T01:34:35;97270.85;;;12.37;87.98
24302;BME280;12421;49.732;20.078;2023-05-21T01:44:42;97265.02;;;12.10;87.43
24302;BME280;12421;49.732;20.078;2023-05-21T01:54:47;97268.02;;;11.78;86.52
24302;BME280;12421;49.732;20.078;2023-05-21T02:04:51;97260.27;;;11.60;86.94
24302;BME280;12421;49.732;20.078;2023-05-21T02:14:54;97254.04;;;11.48;87.24
24302;BME280;12421;49.732;20.078;2023-05-21T02:24:58;97248.02;;;11.33;87.04
24302;BME280;12421;49.732;20.078;2023-05-21T02:35:03;97244.77;;;11.21;86.70
24302;BME280;12421;49.732;20.078;2023-05-21T02:45:07;97233.14;;;11.27;87.27
24302;BME280;12421;49.732;20.078;2023-05-21T02:55:11;97236.52;;;11.21;86.52
24302;BME280;12421;49.732;20.078;2023-05-21T03:05:15;97225.20;;;11.06;85.89
24302;BME280;12421;49.732;20.078;2023-05-21T03:15:19;97232.60;;;11.04;86.60
24302;BME280;12421;49.732;20.078;2023-05-21T03:25:26;97235.15;;;11.15;88.32
24302;BME280;12421;49.732;20.078;2023-05-21T03:35:30;97233.13;;;11.06;88.04
24302;BME280;12421;49.732;20.078;2023-05-21T03:45:33;97229.33;;;10.97;87.15
24302;BME280;12421;49.732;20.078;2023-05-21T03:55:56;97235.48;;;11.17;87.49
24302;BME280;12421;49.732;20.078;2023-05-21T04:06:00;97239.46;;;11.64;88.23
24302;BME280;12421;49.732;20.078;2023-05-21T04:16:03;97239.65;;;12.12;88.75
24302;BME280;12421;49.732;20.078;2023-05-21T04:26:07;97250.48;;;12.47;88.57
24302;BME280;12421;49.732;20.078;2023-05-21T04:36:14;97247.29;;;12.85;88.62
24302;BME280;12421;49.732;20.078;2023-05-21T04:46:22;97238.89;;;13.18;88.67
24302;BME280;12421;49.732;20.078;2023-05-21T04:56:28;97239.16;;;13.63;88.34
24302;BME280;12421;49.732;20.078;2023-05-21T05:06:32;97232.61;;;14.11;87.83
24302;BME280;12421;49.732;20.078;2023-05-21T05:16:35;97226.70;;;14.74;87.56
24302;BME280;12421;49.732;20.078;2023-05-21T05:26:38;97225.20;;;15.97;86.38
24302;BME280;12421;49.732;20.078;2023-05-21T05:36:41;97232.05;;;17.46;82.72
24302;BME280;12421;49.732;20.078;2023-05-21T05:46:45;97227.39;;;18.34;78.55
24302;BME280;12421;49.732;20.078;2023-05-21T05:56:49;97220.14;;;18.52;78.30
24302;BME280;12421;49.732;20.078;2023-05-21T06:06:52;97223.83;;;18.58;77.03
24302;BME280;12421;49.732;20.078;2023-05-21T06:16:56;97221.67;;;19.30;75.68
24302;BME280;12421;49.732;20.078;2023-05-21T06:27:02;97205.33;;;20.94;71.65
24302;BME280;12421;49.732;20.078;2023-05-21T06:37:06;97200.88;;;22.36;67.47
24302;BME280;12421;49.732;20.078;2023-05-21T06:47:10;97194.30;;;23.38;64.60
24302;BME280;12421;49.732;20.078;2023-05-21T06:57:15;97181.73;;;24.52;61.41
24302;BME280;12421;49.732;20.078;2023-05-21T07:07:18;97174.53;;;25.17;58.52
24302;BME280;12421;49.732;20.078;2023-05-21T07:17:23;97166.73;;;25.88;56.50
24302;BME280;12421;49.732;20.078;2023-05-21T07:27:43;97164.30;;;25.76;53.12
24302;BME280;12421;49.732;20.078;2023-05-21T07:38:10;97161.18;;;25.50;52.06
24302;BME280;12421;49.732;20.078;2023-05-21T07:48:17;97164.58;;;25.61;52.13
24302;BME280;12421;49.732;20.078;2023-05-21T07:58:34;97167.15;;;25.20;52.58
24302;BME280;12421;49.732;20.078;2023-05-21T08:08:40;97159.77;;;24.84;52.75
24302;BME280;12421;49.732;20.078;2023-05-21T08:19:04;97155.67;;;24.52;53.48
24302;BME280;12421;49.732;20.078;2023-05-21T08:29:08;97157.75;;;23.59;54.86
24302;BME280;12421;49.732;20.078;2023-05-21T08:39:19;97157.48;;;23.18;55.03
24302;BME280;12421;49.732;20.078;2023-05-21T08:49:26;97153.81;;;23.00;54.39
24302;BME280;12421;49.732;20.078;2023-05-21T08:59:33;97156.25;;;22.96;53.83
24302;BME280;12421;49.732;20.078;2023-05-21T09:20:06;97137.73;;;23.15;52.11
24302;BME280;12421;49.732;20.078;2023-05-21T09:30:35;97133.57;;;23.44;51.24
24302;BME280;12421;49.732;20.078;2023-05-21T09:40:43;97130.48;;;23.51;49.62
24302;BME280;12421;49.732;20.078;2023-05-21T09:50:53;97123.54;;;23.41;48.81
24302;BME280;12421;49.732;20.078;2023-05-21T10:01:40;97119.63;;;23.40;48.42
24302;BME280;12421;49.732;20.078;2023-05-21T10:11:44;97118.46;;;23.51;47.31
24302;BME280;12421;49.732;20.078;2023-05-21T10:21:55;97116.96;;;23.55;46.70
24302;BME280;12421;49.732;20.078;2023-05-21T10:32:00;97105.56;;;23.69;46.58
24302;BME280;12421;49.732;20.078;2023-05-21T11:03:15;97088.44;;;23.73;42.80
24302;BME280;12421;49.732;20.078;2023-05-21T11:24:06;97085.34;;;23.74;41.66
24302;BME280;12421;49.732;20.078;2023-05-21T11:44:44;97087.61;;;23.96;42.15
24302;BME280;12421;49.732;20.078;2023-05-21T11:54:52;97083.05;;;24.05;42.14
24302;BME280;12421;49.732;20.078;2023-05-21T12:04:58;97078.59;;;24.08;42.65
24302;BME280;12421;49.732;20.078;2023-05-21T12:15:03;97067.04;;;24.21;41.50
24302;BME280;12421;49.732;20.078;2023-05-21T12:25:18;97066.11;;;24.26;43.59
24302;BME280;12421;49.732;20.078;2023-05-21T12:35:22;97056.34;;;24.11;45.19
24302;BME280;12421;49.732;20.078;2023-05-21T12:45:27;97052.50;;;24.12;45.43
24302;BME280;12421;49.732;20.078;2023-05-21T12:56:05;97043.20;;;24.06;45.23
24302;BME280;12421;49.732;20.078;2023-05-21T13:06:09;97043.72;;;24.04;45.20
24302;BME280;12421;49.732;20.078;2023-05-21T13:16:38;97032.71;;;24.10;45.49
24302;BME280;12421;49.732;20.078;2023-05-21T13:27:03;97026.87;;;24.09;45.62
24302;BME280;12421;49.732;20.078;2023-05-21T13:37:06;97020.18;;;24.04;45.56
24302;BME280;12421;49.732;20.078;2023-05-21T13:47:11;97010.38;;;24.00;45.59
24302;BME280;12421;49.732;20.078;2023-05-21T13:57:15;97005.10;;;23.87;44.61
24302;BME280;12421;49.732;20.078;2023-05-21T14:07:21;96999.83;;;23.74;45.16
24302;BME280;12421;49.732;20.078;2023-05-21T14:17:29;97006.48;;;23.68;45.73
24302;BME280;12421;49.732;20.078;2023-05-21T14:27:32;97009.27;;;23.66;45.90
24302;BME280;12421;49.732;20.078;2023-05-21T14:37:39;97000.36;;;23.65;45.74
24302;BME280;12421;49.732;20.078;2023-05-21T14:47:46;97003.33;;;23.58;46.28
24302;BME280;12421;49.732;20.078;2023-05-21T14:57:52;97009.29;;;23.60;46.11
24302;BME280;12421;49.732;20.078;2023-05-21T15:08:08;97008.02;;;23.52;45.97
24302;BME280;12421;49.732;20.078;2023-05-21T15:18:12;97014.42;;;23.38;45.44
24302;BME280;12421;49.732;20.078;2023-05-21T15:28:46;97015.81;;;23.17;45.40
24302;BME280;12421;49.732;20.078;2023-05-21T15:38:53;97008.16;;;23.01;45.24
24302;BME280;12421;49.732;20.078;2023-05-21T15:49:09;97006.96;;;22.82;45.52
24302;BME280;12421;49.732;20.078;2023-05-21T15:59:56;97006.23;;;22.64;45.42
24302;BME280;12421;49.732;20.078;2023-05-21T16:10:21;97008.93;;;22.45;45.12
24302;BME280;12421;49.732;20.078;2023-05-21T16:20:24;97017.52;;;22.36;45.75
24302;BME280;12421;49.732;20.078;2023-05-21T16:30:28;97027.31;;;22.08;44.68
24302;BME280;12421;49.732;20.078;2023-05-21T16:40:31;97027.09;;;21.85;45.83
24302;BME280;12421;49.732;20.078;2023-05-21T16:50:34;97036.62;;;21.67;45.99
24302;BME280;12421;49.732;20.078;2023-05-21T17:00:38;97040.17;;;21.37;46.60
24302;BME280;12421;49.732;20.078;2023-05-21T17:10:41;97047.77;;;21.08;46.91
24302;BME280;12421;49.732;20.078;2023-05-21T17:20:44;97046.41;;;20.78;47.39
24302;BME280;12421;49.732;20.078;2023-05-21T17:30:48;97045.37;;;20.37;48.90
24302;BME280;12421;49.732;20.078;2023-05-21T17:40:51;97041.36;;;20.05;50.12
24302;BME280;12421;49.732;20.078;2023-05-21T17:50:55;97043.26;;;19.64;51.53
24302;BME280;12421;49.732;20.078;2023-05-21T18:00:58;97045.25;;;19.26;52.20
24302;BME280;12421;49.732;20.078;2023-05-21T18:11:01;97049.92;;;18.88;53.05
24302;BME280;12421;49.732;20.078;2023-05-21T18:21:05;97050.52;;;18.43;54.75
24302;BME280;12421;49.732;20.078;2023-05-21T18:31:08;97060.34;;;17.82;57.08
24302;BME280;12421;49.732;20.078;2023-05-21T18:41:12;97067.16;;;17.10;59.91
24302;BME280;12421;49.732;20.078;2023-05-21T18:51:16;97075.67;;;16.40;61.12
24302;BME280;12421;49.732;20.078;2023-05-21T19:01:19;97088.55;;;15.83;62.41
24302;BME280;12421;49.732;20.078;2023-05-21T19:11:22;97094.06;;;15.32;63.83
24302;BME280;12421;49.732;20.078;2023-05-21T19:21:25;97095.73;;;14.74;65.69
24302;BME280;12421;49.732;20.078;2023-05-21T19:31:32;97100.05;;;14.25;67.20
24302;BME280;12421;49.732;20.078;2023-05-21T19:41:35;97098.31;;;13.83;68.38
24302;BME280;12421;49.732;20.078;2023-05-21T19:51:38;97095.06;;;13.43;69.54
24302;BME280;12421;49.732;20.078;2023-05-21T20:01:42;97095.25;;;13.05;70.39
24302;BME280;12421;49.732;20.078;2023-05-21T20:11:49;97094.52;;;12.75;71.45
24302;BME280;12421;49.732;20.078;2023-05-21T20:21:52;97094.28;;;12.35;72.07
24302;BME280;12421;49.732;20.078;2023-05-21T20:31:55;97099.20;;;11.88;73.52
24302;BME280;12421;49.732;20.078;2023-05-21T20:41:59;97104.25;;;11.46;74.43
24302;BME280;12421;49.732;20.078;2023-05-21T20:52:03;97101.27;;;11.14;75.55
24302;BME280;12421;49.732;20.078;2023-05-21T21:02:09;97093.34;;;11.00;76.47
24302;BME280;12421;49.732;20.078;2023-05-21T21:12:14;97085.75;;;10.85;76.82
24302;BME280;12421;49.732;20.078;2023-05-21T21:22:29;97089.70;;;10.55;77.06
24302;BME280;12421;49.732;20.078;2023-05-21T21:32:33;97098.87;;;10.29;77.28
24302;BME280;12421;49.732;20.078;2023-05-21T21:42:36;97103.52;;;10.12;77.88
24302;BME280;12421;49.732;20.078;2023-05-21T21:52:39;97100.17;;;10.17;78.10
24302;BME280;12421;49.732;20.078;2023-05-21T22:02:43;97096.88;;;10.09;78.13
24302;BME280;12421;49.732;20.078;2023-05-21T22:12:49;97096.41;;;9.98;77.94
24302;BME280;12421;49.732;20.078;2023-05-21T22:22:52;97093.67;;;9.84;78.18
24302;BME280;12421;49.732;20.078;2023-05-21T22:32:57;97087.66;;;9.59;78.52
24302;BME280;12421;49.732;20.078;2023-05-21T22:43:00;97079.69;;;9.37;78.79
24302;BME280;12421;49.732;20.078;2023-05-21T22:53:05;97074.70;;;9.14;78.98
24302;BME280;12421;49.732;20.078;2023-05-21T23:03:08;97076.33;;;8.98;79.62
24302;BME280;12421;49.732;20.078;2023-05-21T23:13:11;97073.02;;;8.76;80.02
24302;BME280;12421;49.732;20.078;2023-05-21T23:23:15;97063.08;;;8.57;80.67
24302;BME280;12421;49.732;20.078;2023-05-21T23:33:18;97058.02;;;8.42;81.12
24302;BME280;12421;49.732;20.078;2023-05-21T23:43:22;97047.35;;;8.35;81.68
24302;BME280;12421;49.732;20.078;2023-05-21T23:53:25;97038.77;;;8.22;81.87
